logo
Search for airport 
image banner adimage banner adimage banner ad
image banner ad

HKLC - Seislucho

Located in , Kenya

ICAO - , IATA -

Data provided by Airmate  

General information

Coordinates: N4°22'40" E36°13'0"
Elevation is 1207 feet MSL.
 
View others Airports in Eastern Province

Operational data

Special qualification required
Current time UTC:
Current local time:
Weather at : - ( 0 km )
METAR: CYXS 230457Z AUTO 00000KT 9SM CLR 02/M03 A3003 RMK SLP202
View NOTAMs / SUP AIP / TFR affecting this airport [VIEW]
Communications frequencies: [VIEW]

Runways:

RWY identifierQFULength (ft)Width (ft)SurfaceLDA (ft)
0900UNK
2700UNK

Airport contact information

Address: Kenya

Satellite view of HKLC